createdAt,value
2019-01-10T00:01:21.030Z,8.73
2019-01-10T00:04:02.026Z,10.13
2019-01-10T00:06:42.646Z,11.60
2019-01-10T00:09:23.723Z,13.47
2019-01-10T00:12:05.310Z,11.00
2019-01-10T00:17:31.595Z,10.60
2019-01-10T00:20:12.310Z,11.07
2019-01-10T00:22:53.719Z,8.37
2019-01-10T00:25:35.327Z,10.03
2019-01-10T00:28:16.844Z,16.40
2019-01-10T00:30:58.325Z,13.03
2019-01-10T00:33:39.043Z,10.40
2019-01-10T00:36:20.610Z,6.50
2019-01-10T00:39:01.734Z,10.30
2019-01-10T00:41:42.893Z,9.80
2019-01-10T00:44:24.431Z,8.13
2019-01-10T00:47:05.245Z,10.23
2019-01-10T00:49:46.246Z,13.70
2019-01-10T00:52:27.064Z,9.47
2019-01-10T00:55:09.414Z,12.53
2019-01-10T00:57:50.759Z,9.17
2019-01-10T01:00:31.458Z,8.13
2019-01-10T01:03:12.355Z,15.60
2019-01-10T01:05:54.026Z,10.40
2019-01-10T01:08:23.569Z,7.70
2019-01-10T01:11:12.050Z,8.03
2019-01-10T01:13:53.414Z,12.37
2019-01-10T01:19:13.136Z,9.00
2019-01-10T01:21:54.578Z,8.67
2019-01-10T01:24:35.190Z,10.63
2019-01-10T01:27:16.820Z,9.53
2019-01-10T01:29:57.499Z,10.33
2019-01-10T01:32:38.311Z,10.27
2019-01-10T01:35:21.627Z,11.03
2019-01-10T01:38:02.402Z,6.60
2019-01-10T01:40:44.096Z,9.73
2019-01-10T01:43:13.532Z,16.53
2019-01-10T01:46:02.064Z,13.40
2019-01-10T01:48:50.690Z,9.80
2019-01-10T01:51:32.257Z,12.67
2019-01-10T01:54:13.737Z,7.93
2019-01-10T01:56:54.401Z,7.33
2019-01-10T01:59:35.271Z,8.20
2019-01-10T02:02:16.694Z,9.10
2019-01-10T02:04:57.482Z,7.40
2019-01-10T02:07:38.922Z,8.67
2019-01-10T02:10:20.431Z,7.70
2019-01-10T02:13:01.139Z,10.00
2019-01-10T02:15:42.041Z,8.00
2019-01-10T02:18:23.542Z,7.80
2019-01-10T02:21:04.398Z,7.23
2019-01-10T02:23:45.091Z,5.87
2019-01-10T02:26:26.444Z,9.53
2019-01-10T02:29:07.151Z,8.00
2019-01-10T02:31:48.365Z,8.40
2019-01-10T02:34:30.039Z,8.37
2019-01-10T02:37:11.419Z,5.63
2019-01-10T02:39:52.842Z,13.83
2019-01-10T02:42:34.365Z,7.23
2019-01-10T02:45:15.985Z,9.27
2019-01-10T02:47:57.504Z,5.07
2019-01-10T02:50:38.216Z,10.00
2019-01-10T02:53:19.748Z,10.50
2019-01-10T02:56:01.370Z,7.60
2019-01-10T02:58:42.853Z,10.17
2019-01-10T03:01:24.336Z,11.40
2019-01-10T03:04:05.159Z,12.17
2019-01-10T03:06:45.903Z,8.67
2019-01-10T03:09:26.899Z,14.70
2019-01-10T03:12:08.200Z,12.47
2019-01-10T03:14:49.194Z,8.23
2019-01-10T03:17:30.589Z,9.90
2019-01-10T03:20:11.992Z,10.47
2019-01-10T03:22:52.759Z,13.63
2019-01-10T03:25:33.631Z,14.70
2019-01-10T03:28:15.111Z,11.17
2019-01-10T03:30:56.752Z,8.40
2019-01-10T03:33:38.342Z,14.23
2019-01-10T03:36:20.009Z,8.67
2019-01-10T03:39:02.410Z,5.33
2019-01-10T03:41:43.637Z,9.07
2019-01-10T03:44:33.811Z,10.73
2019-01-10T03:47:07.430Z,6.57
2019-01-10T03:49:48.835Z,7.33
2019-01-10T03:52:29.677Z,9.47
2019-01-10T03:55:11.400Z,9.73
2019-01-10T03:57:52.926Z,7.67
2019-01-10T04:00:33.778Z,6.10
2019-01-10T04:03:14.486Z,7.47
2019-01-10T04:05:55.735Z,8.17
2019-01-10T04:08:36.477Z,15.67
2019-01-10T04:11:17.967Z,9.23
2019-01-10T04:13:59.187Z,8.80
2019-01-10T04:16:40.581Z,8.03
2019-01-10T04:19:22.255Z,6.03
2019-01-10T04:22:02.954Z,8.83
2019-01-10T04:24:45.272Z,9.87
2019-01-10T04:27:25.789Z,7.67
2019-01-10T04:30:07.353Z,8.63
2019-01-10T04:32:48.833Z,7.57
2019-01-10T04:35:29.679Z,10.37
2019-01-10T04:38:11.264Z,7.73
2019-01-10T04:40:53.066Z,6.27
2019-01-10T04:43:34.474Z,9.43
2019-01-10T04:46:15.462Z,8.70
2019-01-10T04:48:56.264Z,9.63
2019-01-10T04:51:37.641Z,8.87
2019-01-10T04:54:18.406Z,6.73
2019-01-10T04:56:59.359Z,12.47
2019-01-10T04:59:40.945Z,12.50
2019-01-10T05:02:22.603Z,10.83
2019-01-10T05:05:03.412Z,9.13
2019-01-10T05:07:44.946Z,13.37
2019-01-10T05:10:25.635Z,13.27
2019-01-10T05:13:06.363Z,9.00
2019-01-10T05:15:47.966Z,11.63
2019-01-10T05:18:28.918Z,9.53
2019-01-10T05:21:10.138Z,12.77
2019-01-10T05:23:51.621Z,13.37
2019-01-10T05:26:32.379Z,11.80
2019-01-10T05:29:14.098Z,11.73
2019-01-10T05:31:55.547Z,11.00
2019-01-10T05:34:36.989Z,9.13
2019-01-10T05:37:18.601Z,11.43
2019-01-10T05:39:59.544Z,10.33
2019-01-10T05:42:41.146Z,9.97
2019-01-10T05:45:22.975Z,11.57
2019-01-10T05:48:03.074Z,11.57
2019-01-10T05:50:44.473Z,11.20
2019-01-10T05:53:25.834Z,17.63
2019-01-10T05:56:15.214Z,14.20
2019-01-10T05:58:50.015Z,13.70
2019-01-10T06:01:31.390Z,9.13
2019-01-10T06:04:00.949Z,13.87
2019-01-10T06:06:49.931Z,11.30
2019-01-10T06:09:30.705Z,10.33
2019-01-10T06:12:11.887Z,10.07
2019-01-10T06:14:53.475Z,12.70
2019-01-10T06:17:34.195Z,10.70
2019-01-10T06:20:15.041Z,14.87
2019-01-10T06:22:56.442Z,11.50
2019-01-10T06:25:37.378Z,13.53
2019-01-10T06:28:19.329Z,13.20
2019-01-10T06:31:00.493Z,14.57
2019-01-10T06:33:41.893Z,12.77
2019-01-10T06:36:23.222Z,16.40
2019-01-10T06:41:50.361Z,13.20
2019-01-10T06:44:31.913Z,14.37
2019-01-10T06:47:13.062Z,12.70
2019-01-10T06:49:53.769Z,16.77
2019-01-10T06:52:34.467Z,14.07
2019-01-10T06:55:15.684Z,15.03
2019-01-10T06:57:56.416Z,17.37
2019-01-10T07:00:38.023Z,20.03
2019-01-10T07:06:05.652Z,16.43
2019-01-10T07:08:47.357Z,19.70
2019-01-10T07:11:28.761Z,19.20
2019-01-10T07:14:10.641Z,20.80
2019-01-10T07:16:53.756Z,14.33
2019-01-10T07:19:53.761Z,16.17
2019-01-10T07:22:35.402Z,19.97
2019-01-10T07:25:16.416Z,13.53
2019-01-10T07:27:57.403Z,14.17
2019-01-10T07:30:38.612Z,13.87
2019-01-10T07:33:19.510Z,15.10
2019-01-10T07:39:11.802Z,14.37
2019-01-10T07:41:52.947Z,15.77
2019-01-10T07:44:35.208Z,15.17
2019-01-10T07:47:14.863Z,19.00
2019-01-10T07:49:57.097Z,19.37
2019-01-10T07:52:39.143Z,22.13
2019-01-10T07:55:20.407Z,13.73
2019-01-10T07:58:01.933Z,16.43
2019-01-10T08:00:43.649Z,18.77
2019-01-10T08:03:25.468Z,15.13
2019-01-10T08:06:07.662Z,18.73
2019-01-10T08:08:49.238Z,19.47
2019-01-10T08:11:30.633Z,17.43
2019-01-10T08:14:11.831Z,21.47
2019-01-10T08:16:52.735Z,18.40
2019-01-10T08:19:34.799Z,17.77
2019-01-10T08:22:15.981Z,18.83
2019-01-10T08:24:57.720Z,19.60
2019-01-10T08:27:39.170Z,17.23
2019-01-10T08:30:20.363Z,13.80
2019-01-10T08:33:01.561Z,15.40
2019-01-10T08:35:42.545Z,19.63
2019-01-10T08:38:24.205Z,18.27
2019-01-10T08:41:05.587Z,16.03
2019-01-10T08:43:47.166Z,16.67
2019-01-10T08:49:14.883Z,18.10
2019-01-10T08:51:56.371Z,18.23
2019-01-10T08:54:37.950Z,20.57
2019-01-10T08:57:19.531Z,31.67
2019-01-10T09:00:00.977Z,111.90
2019-01-10T09:02:42.444Z,117.00
2019-01-10T09:05:23.590Z,102.73
2019-01-10T09:08:05.398Z,28.53
2019-01-10T09:10:46.594Z,22.63
2019-01-10T09:13:27.654Z,17.00
2019-01-10T09:16:08.381Z,19.53
2019-01-10T09:18:50.043Z,18.27
2019-01-10T09:21:30.930Z,22.30
2019-01-10T09:24:12.441Z,12.47
2019-01-10T09:26:53.856Z,18.97
2019-01-10T09:29:34.837Z,31.07
2019-01-10T09:32:16.094Z,19.30
2019-01-10T09:34:57.981Z,20.57
2019-01-10T09:37:39.318Z,17.27
2019-01-10T09:40:21.934Z,16.40
2019-01-10T09:43:02.701Z,16.10
2019-01-10T09:45:44.183Z,13.90
2019-01-10T09:48:25.596Z,15.37
2019-01-10T09:51:06.567Z,19.47
2019-01-10T09:53:48.067Z,23.40
2019-01-10T09:56:29.612Z,25.33
2019-01-10T09:59:11.756Z,20.47
2019-01-10T10:01:52.683Z,28.07
2019-01-10T10:04:34.402Z,23.37
2019-01-10T10:07:16.387Z,28.63
2019-01-10T10:12:40.557Z,21.80
2019-01-10T10:15:25.050Z,24.37
2019-01-10T10:18:06.196Z,23.10
2019-01-10T10:20:49.993Z,17.63
2019-01-10T10:23:30.522Z,21.30
2019-01-10T10:26:12.215Z,23.00
2019-01-10T10:28:53.907Z,18.57
2019-01-10T10:31:36.047Z,21.37
2019-01-10T10:34:17.576Z,17.60
2019-01-10T10:36:58.303Z,16.80
2019-01-10T10:39:40.066Z,19.23
2019-01-10T10:42:21.311Z,13.20
2019-01-10T10:47:44.845Z,15.43
2019-01-10T10:50:26.127Z,20.17
2019-01-10T10:53:10.722Z,21.63
2019-01-10T10:55:53.100Z,23.40
2019-01-10T10:58:37.701Z,18.43
2019-01-10T11:01:21.191Z,20.27
2019-01-10T11:04:02.526Z,20.73
2019-01-10T11:12:59.615Z,17.23
2019-01-10T11:15:42.797Z,15.97
2019-01-10T11:18:27.513Z,22.37
2019-01-10T11:21:09.225Z,17.37
2019-01-10T11:23:51.519Z,15.07
2019-01-10T11:26:33.035Z,14.90
2019-01-10T11:29:14.405Z,14.80
2019-01-10T11:31:55.515Z,13.93
2019-01-10T11:37:15.630Z,14.23
2019-01-10T11:39:57.193Z,15.20
2019-01-10T11:42:38.932Z,10.27
2019-01-10T11:45:20.869Z,13.43
2019-01-10T11:48:01.975Z,14.63
2019-01-10T11:50:43.378Z,16.73
2019-01-10T11:53:24.979Z,13.63
2019-01-10T11:56:06.355Z,16.03
2019-01-10T11:58:47.854Z,17.33
2019-01-10T12:01:17.321Z,14.37
2019-01-10T12:04:05.882Z,13.50
2019-01-10T12:06:54.421Z,29.00
2019-01-10T12:09:36.361Z,33.07
2019-01-10T12:12:17.842Z,17.27
2019-01-10T12:15:00.162Z,17.17
2019-01-10T12:17:41.338Z,17.00
2019-01-10T12:20:22.840Z,17.43
2019-01-10T12:23:03.814Z,16.70
2019-01-10T12:25:45.384Z,13.70
2019-01-10T12:28:27.071Z,14.63
2019-01-10T12:30:56.515Z,11.53
2019-01-10T12:33:45.089Z,13.53
2019-01-10T12:36:26.949Z,14.63
2019-01-10T12:39:08.185Z,9.47
2019-01-10T12:41:49.632Z,12.00
2019-01-10T12:44:30.907Z,16.53
2019-01-10T12:47:12.659Z,9.77
2019-01-10T12:49:54.505Z,11.10
2019-01-10T12:52:35.573Z,11.57
2019-01-10T12:55:17.553Z,13.63
2019-01-10T12:57:58.179Z,9.70
2019-01-10T13:00:39.804Z,17.37
2019-01-10T13:03:21.383Z,10.23
2019-01-10T13:06:02.927Z,11.07
2019-01-10T13:08:43.949Z,11.27
2019-01-10T13:14:05.491Z,8.33
2019-01-10T13:16:47.035Z,8.17
2019-01-10T13:19:28.838Z,9.37
2019-01-10T13:22:09.650Z,8.27
2019-01-10T13:24:51.342Z,14.47
2019-01-10T13:27:32.946Z,9.83
2019-01-10T13:30:14.196Z,10.37
2019-01-10T13:32:54.979Z,16.50
2019-01-10T13:35:36.447Z,7.17
2019-01-10T13:38:19.341Z,8.23
2019-01-10T13:41:00.851Z,13.17
2019-01-10T13:43:42.856Z,8.53
2019-01-10T13:49:10.644Z,6.80
2019-01-10T13:51:52.478Z,6.40
2019-01-10T13:54:33.829Z,7.17
2019-01-10T14:00:27.415Z,7.10
2019-01-10T14:03:11.672Z,7.20
2019-01-10T14:05:51.460Z,7.70
2019-01-10T14:08:37.288Z,8.50
2019-01-10T14:11:15.726Z,9.93
2019-01-10T14:13:57.203Z,7.23
2019-01-10T14:16:27.035Z,7.03
2019-01-10T14:19:15.873Z,7.17
2019-01-10T14:21:56.989Z,4.70
2019-01-10T14:24:39.412Z,4.17
2019-01-10T14:27:21.791Z,3.43
2019-01-10T14:32:43.749Z,5.80
2019-01-10T14:35:24.722Z,5.47
2019-01-10T14:38:05.457Z,6.60
2019-01-10T14:40:46.534Z,5.63
2019-01-10T14:43:27.951Z,8.83
2019-01-10T14:46:09.318Z,10.83
2019-01-10T14:48:50.741Z,10.30
2019-01-10T14:51:32.349Z,8.80
2019-01-10T14:54:13.634Z,12.33
2019-01-10T14:56:58.136Z,7.33
2019-01-10T15:02:23.657Z,7.90
2019-01-10T15:07:44.190Z,5.17
2019-01-10T15:10:25.239Z,10.37
2019-01-10T15:13:06.049Z,7.33
2019-01-10T15:15:35.536Z,12.30
2019-01-10T15:18:24.019Z,10.37
2019-01-10T15:21:12.672Z,9.70
2019-01-10T15:23:53.983Z,14.07
2019-01-10T15:26:36.226Z,13.67
2019-01-10T15:29:17.702Z,11.13
2019-01-10T15:31:58.723Z,11.47
2019-01-10T15:34:39.477Z,10.87
2019-01-10T15:37:21.050Z,13.07
2019-01-10T15:40:02.094Z,14.17
2019-01-10T15:42:43.834Z,13.90
2019-01-10T15:45:25.649Z,15.57
2019-01-10T15:48:06.907Z,16.93
2019-01-10T15:50:47.698Z,14.93
2019-01-10T15:53:29.133Z,10.67
2019-01-10T15:56:10.480Z,14.73
2019-01-10T15:58:52.092Z,13.53
2019-01-10T16:01:32.864Z,15.53
2019-01-10T16:04:14.391Z,13.07
2019-01-10T16:06:55.334Z,14.07
2019-01-10T16:09:36.609Z,16.40
2019-01-10T16:12:17.403Z,13.67
2019-01-10T16:14:59.035Z,23.43
2019-01-10T16:17:40.407Z,24.37
2019-01-10T16:20:24.968Z,13.30
2019-01-10T16:23:05.891Z,17.03
2019-01-10T16:25:46.644Z,17.07
2019-01-10T16:28:27.465Z,15.30
2019-01-10T16:31:08.976Z,17.60
2019-01-10T16:33:50.665Z,16.13
2019-01-10T16:36:32.314Z,18.70
2019-01-10T16:39:13.129Z,17.70
2019-01-10T16:41:54.489Z,19.30
2019-01-10T16:44:39.301Z,14.27
2019-01-10T16:47:20.783Z,12.57
2019-01-10T16:50:03.262Z,17.50
2019-01-10T16:52:47.744Z,13.10
2019-01-10T16:55:29.303Z,15.80
2019-01-10T16:58:11.933Z,14.73
2019-01-10T17:03:40.102Z,25.87
2019-01-10T17:06:22.059Z,20.63
2019-01-10T17:09:04.551Z,17.07
2019-01-10T17:11:47.202Z,13.50
2019-01-10T17:14:30.672Z,14.10
2019-01-10T17:17:12.538Z,17.77
2019-01-10T17:19:55.076Z,16.00
2019-01-10T17:22:36.342Z,13.80
2019-01-10T17:25:17.802Z,21.80
2019-01-10T17:27:58.753Z,14.47
2019-01-10T17:30:40.093Z,19.03
2019-01-10T17:33:09.540Z,12.17
2019-01-10T17:35:58.606Z,15.23
2019-01-10T17:38:47.155Z,12.77
2019-01-10T17:41:29.945Z,21.20
2019-01-10T17:47:01.772Z,18.47
2019-01-10T17:49:44.140Z,14.20
2019-01-10T17:52:28.619Z,14.77
2019-01-10T17:54:58.303Z,20.17
2019-01-10T17:57:46.994Z,15.93
2019-01-10T18:00:35.615Z,12.70
2019-01-10T18:03:16.564Z,12.40
2019-01-10T18:05:58.743Z,17.30
2019-01-10T18:08:42.524Z,13.20
2019-01-10T18:11:24.919Z,14.37
2019-01-10T18:14:06.058Z,18.20
2019-01-10T18:16:47.643Z,12.47
2019-01-10T18:19:28.602Z,15.57
2019-01-10T18:22:09.524Z,15.73
2019-01-10T18:24:53.188Z,15.23
2019-01-10T18:27:34.941Z,13.23
2019-01-10T18:30:17.102Z,12.13
2019-01-10T18:32:58.736Z,12.57
2019-01-10T18:35:40.640Z,17.60
2019-01-10T18:38:21.787Z,15.27
2019-01-10T18:41:02.797Z,15.53
2019-01-10T18:46:26.686Z,18.77
2019-01-10T18:52:17.256Z,19.10
2019-01-10T18:55:00.368Z,19.87
2019-01-10T18:57:42.756Z,23.53
2019-01-10T19:00:24.011Z,18.83
2019-01-10T19:03:05.577Z,20.60
2019-01-10T19:05:46.580Z,24.97
2019-01-10T19:08:28.315Z,20.87
2019-01-10T19:11:09.297Z,25.53
2019-01-10T19:13:50.092Z,19.07
2019-01-10T19:16:30.817Z,16.43
2019-01-10T19:19:12.750Z,18.77
2019-01-10T19:21:54.054Z,17.67
2019-01-10T19:24:35.683Z,15.13
2019-01-10T19:27:17.245Z,17.03
2019-01-10T19:29:58.008Z,13.10
2019-01-10T19:32:39.896Z,16.57
2019-01-10T19:35:21.396Z,14.20
2019-01-10T19:38:02.353Z,17.47
2019-01-10T19:40:43.441Z,13.03
2019-01-10T19:43:24.241Z,15.60
2019-01-10T19:46:05.502Z,17.27
2019-01-10T19:48:46.786Z,17.60
2019-01-10T19:51:27.733Z,16.00
2019-01-10T19:54:09.316Z,17.43
2019-01-10T19:56:50.527Z,20.20
2019-01-10T19:59:31.907Z,14.97
2019-01-10T20:02:13.615Z,19.33
2019-01-10T20:04:54.834Z,16.13
2019-01-10T20:19:20.706Z,14.70
2019-01-10T20:22:03.640Z,17.07
2019-01-10T20:24:45.187Z,16.97
2019-01-10T20:27:26.805Z,17.30
2019-01-10T20:30:07.750Z,21.20
2019-01-10T20:32:49.806Z,19.77
2019-01-10T20:35:31.570Z,17.23
2019-01-10T20:38:13.207Z,23.03
2019-01-10T20:40:54.844Z,18.07
2019-01-10T20:43:35.981Z,20.37
2019-01-10T20:46:17.130Z,22.83
2019-01-10T20:48:58.126Z,20.23
2019-01-10T20:51:39.647Z,22.47
2019-01-10T20:54:20.409Z,22.40
2019-01-10T20:57:01.944Z,24.73
2019-01-10T20:59:43.383Z,20.83
2019-01-10T21:02:24.861Z,21.33
2019-01-10T21:05:05.544Z,25.67
2019-01-10T21:07:48.214Z,23.73
2019-01-10T21:10:29.031Z,21.90
2019-01-10T21:13:11.533Z,20.80
2019-01-10T21:15:41.415Z,21.23
2019-01-10T21:18:29.983Z,20.43
2019-01-10T21:21:18.559Z,24.07
2019-01-10T21:23:59.626Z,23.80
2019-01-10T21:26:39.313Z,23.37
2019-01-10T21:29:20.339Z,25.33
2019-01-10T21:32:01.462Z,25.23
2019-01-10T21:34:42.710Z,25.63
2019-01-10T21:37:23.755Z,25.03
2019-01-10T21:39:53.313Z,29.43
2019-01-10T21:42:41.904Z,25.93
2019-01-10T21:45:23.823Z,25.93
2019-01-10T21:48:04.600Z,31.23
2019-01-10T21:50:45.350Z,27.87
2019-01-10T21:53:27.022Z,29.90
2019-01-10T21:56:10.233Z,28.60
2019-01-10T21:58:51.869Z,30.67
2019-01-10T22:01:33.648Z,33.60
2019-01-10T22:04:17.128Z,31.97
2019-01-10T22:06:59.770Z,30.80
2019-01-10T22:09:40.933Z,32.60
2019-01-10T22:12:22.384Z,32.40
2019-01-10T22:15:03.767Z,37.10
2019-01-10T22:17:44.691Z,37.77
2019-01-10T22:20:26.664Z,37.70
2019-01-10T22:23:08.149Z,33.57
2019-01-10T22:28:34.881Z,35.33
2019-01-10T22:31:16.195Z,34.37
2019-01-10T22:33:57.775Z,41.07
2019-01-10T22:36:39.095Z,39.53
2019-01-10T22:39:20.330Z,39.20
2019-01-10T22:42:02.862Z,36.13
2019-01-10T22:47:30.444Z,35.30
2019-01-10T22:50:11.858Z,36.97
2019-01-10T22:52:53.274Z,42.07
2019-01-10T22:55:34.787Z,34.80
2019-01-10T22:58:16.273Z,41.77
2019-01-10T23:04:10.268Z,39.73
2019-01-10T23:06:51.275Z,43.83
2019-01-10T23:09:32.559Z,38.40
2019-01-10T23:12:13.951Z,40.03
2019-01-10T23:14:58.507Z,40.30
2019-01-10T23:20:40.298Z,41.67
2019-01-10T23:23:21.390Z,41.37
2019-01-10T23:26:02.357Z,43.70
2019-01-10T23:28:44.366Z,37.90
2019-01-10T23:31:25.507Z,44.93
2019-01-10T23:34:06.648Z,46.83
2019-01-10T23:36:49.177Z,43.80
2019-01-10T23:39:32.033Z,44.83
2019-01-10T23:42:14.726Z,44.37
2019-01-10T23:44:55.507Z,42.97
2019-01-10T23:47:36.167Z,42.23
2019-01-10T23:50:17.332Z,42.70
2019-01-10T23:52:58.290Z,42.63
2019-01-10T23:55:39.878Z,44.63
2019-01-10T23:58:21.274Z,44.37
